sensor_id;sensor_type;location;lat;lon;timestamp;pressure;altitude;pressure_sealevel;temperature;humidity
46392;BME280;32098;49.448;7.904;2023-08-30T00:01:06;97541.56;;;12.62;83.86
46392;BME280;32098;49.448;7.904;2023-08-30T00:03:35;97543.13;;;12.58;84.13
46392;BME280;32098;49.448;7.904;2023-08-30T00:06:04;97541.00;;;12.55;84.30
46392;BME280;32098;49.448;7.904;2023-08-30T00:08:32;97542.28;;;12.48;84.64
46392;BME280;32098;49.448;7.904;2023-08-30T00:10:59;97543.28;;;12.41;85.03
46392;BME280;32098;49.448;7.904;2023-08-30T00:13:26;97539.25;;;12.39;85.53
46392;BME280;32098;49.448;7.904;2023-08-30T00:15:53;97542.75;;;12.39;85.26
46392;BME280;32098;49.448;7.904;2023-08-30T00:18:20;97538.19;;;12.40;85.52
46392;BME280;32098;49.448;7.904;2023-08-30T00:20:46;97539.28;;;12.44;85.38
46392;BME280;32098;49.448;7.904;2023-08-30T00:23:13;97531.53;;;12.43;85.35
46392;BME280;32098;49.448;7.904;2023-08-30T00:25:40;97535.50;;;12.35;85.75
46392;BME280;32098;49.448;7.904;2023-08-30T00:28:07;97535.00;;;12.43;85.66
46392;BME280;32098;49.448;7.904;2023-08-30T00:30:40;97538.19;;;12.40;85.59
46392;BME280;32098;49.448;7.904;2023-08-30T00:33:07;97529.66;;;12.43;85.76
46392;BME280;32098;49.448;7.904;2023-08-30T00:35:33;97531.25;;;12.44;86.06
46392;BME280;32098;49.448;7.904;2023-08-30T00:38:00;97540.03;;;12.34;85.64
46392;BME280;32098;49.448;7.904;2023-08-30T00:40:28;97535.69;;;12.28;86.13
46392;BME280;32098;49.448;7.904;2023-08-30T00:42:56;97537.06;;;12.36;85.91
46392;BME280;32098;49.448;7.904;2023-08-30T00:45:23;97535.19;;;12.31;85.89
46392;BME280;32098;49.448;7.904;2023-08-30T00:47:50;97542.97;;;12.33;86.09
46392;BME280;32098;49.448;7.904;2023-08-30T00:50:17;97535.69;;;12.28;85.74
46392;BME280;32098;49.448;7.904;2023-08-30T00:52:44;97536.50;;;12.29;86.29
46392;BME280;32098;49.448;7.904;2023-08-30T00:55:11;97534.91;;;12.28;86.57
46392;BME280;32098;49.448;7.904;2023-08-30T00:57:38;97531.19;;;12.34;86.09
46392;BME280;32098;49.448;7.904;2023-08-30T01:00:05;97532.47;;;12.26;86.25
46392;BME280;32098;49.448;7.904;2023-08-30T01:02:33;97521.91;;;12.10;86.43
46392;BME280;32098;49.448;7.904;2023-08-30T01:05:02;97534.81;;;12.18;87.58
46392;BME280;32098;49.448;7.904;2023-08-30T01:07:29;97526.75;;;12.13;87.57
46392;BME280;32098;49.448;7.904;2023-08-30T01:09:56;97523.50;;;12.11;88.27
46392;BME280;32098;49.448;7.904;2023-08-30T01:12:36;97514.13;;;12.08;88.04
46392;BME280;32098;49.448;7.904;2023-08-30T01:15:19;97515.25;;;12.12;87.92
46392;BME280;32098;49.448;7.904;2023-08-30T01:17:47;97515.16;;;12.02;88.12
46392;BME280;32098;49.448;7.904;2023-08-30T01:20:16;97505.03;;;12.09;88.67
46392;BME280;32098;49.448;7.904;2023-08-30T01:23:13;97506.88;;;12.04;88.35
46392;BME280;32098;49.448;7.904;2023-08-30T01:26:09;97505.03;;;12.09;88.59
46392;BME280;32098;49.448;7.904;2023-08-30T01:28:37;97503.22;;;12.15;87.74
46392;BME280;32098;49.448;7.904;2023-08-30T01:31:07;97502.16;;;12.21;88.07
46392;BME280;32098;49.448;7.904;2023-08-30T01:33:37;97506.97;;;12.19;87.41
46392;BME280;32098;49.448;7.904;2023-08-30T01:36:05;97488.53;;;12.22;87.74
46392;BME280;32098;49.448;7.904;2023-08-30T01:38:32;97499.47;;;12.16;87.53
46392;BME280;32098;49.448;7.904;2023-08-30T01:41:01;97497.34;;;12.18;87.72
46392;BME280;32098;49.448;7.904;2023-08-30T01:43:29;97497.63;;;12.21;87.88
46392;BME280;32098;49.448;7.904;2023-08-30T01:45:57;97490.72;;;12.25;87.58
46392;BME280;32098;49.448;7.904;2023-08-30T01:48:24;97486.72;;;12.28;87.14
46392;BME280;32098;49.448;7.904;2023-08-30T01:50:51;97496.31;;;12.24;87.24
46392;BME280;32098;49.448;7.904;2023-08-30T01:53:19;97490.44;;;12.27;87.31
46392;BME280;32098;49.448;7.904;2023-08-30T01:55:46;97500.66;;;12.30;86.77
46392;BME280;32098;49.448;7.904;2023-08-30T01:58:14;97489.94;;;12.30;86.52
46392;BME280;32098;49.448;7.904;2023-08-30T02:00:41;97493.97;;;12.32;86.25
46392;BME280;32098;49.448;7.904;2023-08-30T02:03:12;97488.34;;;12.34;86.46
46392;BME280;32098;49.448;7.904;2023-08-30T02:06:09;97496.13;;;12.35;86.53
46392;BME280;32098;49.448;7.904;2023-08-30T02:09:26;97477.53;;;12.19;86.81
46392;BME280;32098;49.448;7.904;2023-08-30T02:11:35;97503.91;;;12.37;86.55
46392;BME280;32098;49.448;7.904;2023-08-30T02:14:05;97498.53;;;12.37;86.32
46392;BME280;32098;49.448;7.904;2023-08-30T02:16:37;97498.03;;;12.40;85.97
46392;BME280;32098;49.448;7.904;2023-08-30T02:19:05;97497.19;;;12.34;85.66
46392;BME280;32098;49.448;7.904;2023-08-30T02:21:32;97480.75;;;12.21;85.56
46392;BME280;32098;49.448;7.904;2023-08-30T02:23:59;97487.44;;;12.18;86.44
46392;BME280;32098;49.448;7.904;2023-08-30T02:26:25;97483.47;;;12.26;86.28
46392;BME280;32098;49.448;7.904;2023-08-30T02:28:52;97485.38;;;12.25;86.10
46392;BME280;32098;49.448;7.904;2023-08-30T02:31:18;97480.28;;;12.29;85.83
46392;BME280;32098;49.448;7.904;2023-08-30T02:33:45;97476.00;;;12.28;85.70
46392;BME280;32098;49.448;7.904;2023-08-30T02:36:12;97476.50;;;12.25;85.83
46392;BME280;32098;49.448;7.904;2023-08-30T02:38:38;97467.06;;;12.12;85.25
46392;BME280;32098;49.448;7.904;2023-08-30T02:41:05;97487.50;;;11.92;85.35
46392;BME280;32098;49.448;7.904;2023-08-30T02:43:31;97487.78;;;11.90;85.42
46392;BME280;32098;49.448;7.904;2023-08-30T02:45:58;97481.22;;;11.76;85.95
46392;BME280;32098;49.448;7.904;2023-08-30T02:48:24;97486.75;;;11.64;86.99
46392;BME280;32098;49.448;7.904;2023-08-30T02:50:51;97482.50;;;11.68;86.94
46392;BME280;32098;49.448;7.904;2023-08-30T02:53:18;97483.97;;;11.54;87.70
46392;BME280;32098;49.448;7.904;2023-08-30T02:55:46;97490.09;;;11.50;88.32
46392;BME280;32098;49.448;7.904;2023-08-30T02:58:13;97488.13;;;11.40;88.30
46392;BME280;32098;49.448;7.904;2023-08-30T03:00:41;97494.47;;;11.34;88.33
46392;BME280;32098;49.448;7.904;2023-08-30T03:03:08;97484.28;;;11.31;88.34
46392;BME280;32098;49.448;7.904;2023-08-30T03:05:35;97471.53;;;11.38;86.79
46392;BME280;32098;49.448;7.904;2023-08-30T03:08:03;97491.00;;;11.60;85.43
46392;BME280;32098;49.448;7.904;2023-08-30T03:10:31;97484.53;;;11.56;84.03
46392;BME280;32098;49.448;7.904;2023-08-30T03:12:58;97484.06;;;11.64;82.94
46392;BME280;32098;49.448;7.904;2023-08-30T03:15:25;97476.56;;;11.61;82.18
46392;BME280;32098;49.448;7.904;2023-08-30T03:17:52;97468.44;;;11.51;82.93
46392;BME280;32098;49.448;7.904;2023-08-30T03:20:19;97478.69;;;11.59;83.73
46392;BME280;32098;49.448;7.904;2023-08-30T03:22:45;97478.72;;;11.64;83.72
46392;BME280;32098;49.448;7.904;2023-08-30T03:25:13;97473.34;;;11.59;84.45
46392;BME280;32098;49.448;7.904;2023-08-30T03:27:39;97462.94;;;11.36;84.92
46392;BME280;32098;49.448;7.904;2023-08-30T03:30:07;97486.66;;;11.54;84.78
46392;BME280;32098;49.448;7.904;2023-08-30T03:32:34;97480.22;;;11.50;84.68
46392;BME280;32098;49.448;7.904;2023-08-30T03:35:00;97472.47;;;11.54;84.21
46392;BME280;32098;49.448;7.904;2023-08-30T03:37:27;97482.06;;;11.50;83.75
46392;BME280;32098;49.448;7.904;2023-08-30T03:39:54;97479.91;;;11.47;83.38
46392;BME280;32098;49.448;7.904;2023-08-30T03:42:22;97478.53;;;11.44;83.04
46392;BME280;32098;49.448;7.904;2023-08-30T03:44:48;97488.38;;;11.39;82.02
46392;BME280;32098;49.448;7.904;2023-08-30T03:47:15;97482.22;;;11.38;81.39
46392;BME280;32098;49.448;7.904;2023-08-30T03:49:44;97474.59;;;11.03;82.78
46392;BME280;32098;49.448;7.904;2023-08-30T03:52:10;97483.00;;;11.12;83.42
46392;BME280;32098;49.448;7.904;2023-08-30T03:54:38;97486.81;;;11.21;83.70
46392;BME280;32098;49.448;7.904;2023-08-30T03:57:05;97484.47;;;11.03;84.11
46392;BME280;32098;49.448;7.904;2023-08-30T03:59:31;97484.59;;;11.13;84.88
46392;BME280;32098;49.448;7.904;2023-08-30T04:01:59;97490.50;;;11.15;86.39
46392;BME280;32098;49.448;7.904;2023-08-30T04:04:27;97482.03;;;11.23;85.85
46392;BME280;32098;49.448;7.904;2023-08-30T04:06:53;97491.56;;;11.14;84.70
46392;BME280;32098;49.448;7.904;2023-08-30T04:09:20;97483.81;;;11.12;84.33
46392;BME280;32098;49.448;7.904;2023-08-30T04:11:47;97481.75;;;10.98;85.87
46392;BME280;32098;49.448;7.904;2023-08-30T04:14:13;97486.78;;;10.94;87.42
46392;BME280;32098;49.448;7.904;2023-08-30T04:16:41;97489.31;;;11.06;87.39
46392;BME280;32098;49.448;7.904;2023-08-30T04:19:09;97478.63;;;11.06;86.75
46392;BME280;32098;49.448;7.904;2023-08-30T04:21:35;97480.25;;;11.07;86.72
46392;BME280;32098;49.448;7.904;2023-08-30T04:24:02;97491.44;;;11.04;87.01
46392;BME280;32098;49.448;7.904;2023-08-30T04:26:28;97480.16;;;10.97;87.49
46392;BME280;32098;49.448;7.904;2023-08-30T04:28:55;97475.47;;;11.09;87.02
46392;BME280;32098;49.448;7.904;2023-08-30T04:31:22;97476.06;;;11.16;86.53
46392;BME280;32098;49.448;7.904;2023-08-30T04:33:49;97468.59;;;11.18;86.57
46392;BME280;32098;49.448;7.904;2023-08-30T04:36:15;97469.97;;;11.21;86.12
46392;BME280;32098;49.448;7.904;2023-08-30T04:38:42;97465.44;;;11.21;85.80
46392;BME280;32098;49.448;7.904;2023-08-30T04:41:27;97470.78;;;11.21;86.17
46392;BME280;32098;49.448;7.904;2023-08-30T04:43:54;97469.19;;;11.20;85.86
46392;BME280;32098;49.448;7.904;2023-08-30T04:46:21;97462.22;;;11.19;85.66
46392;BME280;32098;49.448;7.904;2023-08-30T04:48:47;97474.09;;;11.06;85.51
46392;BME280;32098;49.448;7.904;2023-08-30T04:51:14;97475.53;;;11.14;85.70
46392;BME280;32098;49.448;7.904;2023-08-30T04:53:41;97485.41;;;11.13;85.52
46392;BME280;32098;49.448;7.904;2023-08-30T04:56:11;97478.34;;;11.02;85.15
46392;BME280;32098;49.448;7.904;2023-08-30T04:58:38;97477.47;;;10.97;86.32
46392;BME280;32098;49.448;7.904;2023-08-30T05:01:07;97469.16;;;10.93;86.28
46392;BME280;32098;49.448;7.904;2023-08-30T05:03:40;97477.47;;;10.97;86.51
46392;BME280;32098;49.448;7.904;2023-08-30T05:06:09;97470.13;;;11.09;85.80
46392;BME280;32098;49.448;7.904;2023-08-30T05:08:36;97465.88;;;11.13;84.71
46392;BME280;32098;49.448;7.904;2023-08-30T05:11:03;97467.50;;;11.14;84.88
46392;BME280;32098;49.448;7.904;2023-08-30T05:13:32;97460.69;;;11.01;84.40
46392;BME280;32098;49.448;7.904;2023-08-30T05:15:59;97467.13;;;11.05;83.86
46392;BME280;32098;49.448;7.904;2023-08-30T05:18:27;97469.13;;;11.15;83.40
46392;BME280;32098;49.448;7.904;2023-08-30T05:20:53;97470.69;;;11.11;83.62
46392;BME280;32098;49.448;7.904;2023-08-30T05:23:20;97473.94;;;11.18;83.19
46392;BME280;32098;49.448;7.904;2023-08-30T05:25:46;97467.88;;;11.23;83.11
46392;BME280;32098;49.448;7.904;2023-08-30T05:28:14;97468.00;;;11.33;82.21
46392;BME280;32098;49.448;7.904;2023-08-30T05:30:42;97474.06;;;11.28;82.10
46392;BME280;32098;49.448;7.904;2023-08-30T05:33:27;97472.91;;;11.19;83.24
46392;BME280;32098;49.448;7.904;2023-08-30T05:36:06;97476.22;;;11.53;90.16
46392;BME280;32098;49.448;7.904;2023-08-30T05:38:50;97483.72;;;11.83;91.50
46392;BME280;32098;49.448;7.904;2023-08-30T05:41:31;97469.78;;;12.17;90.04
46392;BME280;32098;49.448;7.904;2023-08-30T05:43:58;97469.09;;;12.37;86.11
46392;BME280;32098;49.448;7.904;2023-08-30T05:46:25;97471.91;;;12.57;84.58
46392;BME280;32098;49.448;7.904;2023-08-30T05:48:51;97480.84;;;12.73;82.29
46392;BME280;32098;49.448;7.904;2023-08-30T05:51:18;97488.66;;;12.89;81.99
46392;BME280;32098;49.448;7.904;2023-08-30T05:53:46;97485.41;;;12.77;77.61
46392;BME280;32098;49.448;7.904;2023-08-30T05:56:14;97486.47;;;12.81;81.27
46392;BME280;32098;49.448;7.904;2023-08-30T05:58:40;97485.38;;;12.72;78.83
46392;BME280;32098;49.448;7.904;2023-08-30T06:01:07;97484.19;;;12.48;80.12
46392;BME280;32098;49.448;7.904;2023-08-30T06:03:35;97480.31;;;12.34;80.62
46392;BME280;32098;49.448;7.904;2023-08-30T06:06:02;97475.47;;;12.31;82.09
46392;BME280;32098;49.448;7.904;2023-08-30T06:08:28;97483.78;;;12.29;83.09
46392;BME280;32098;49.448;7.904;2023-08-30T06:10:55;97470.41;;;12.34;83.35
46392;BME280;32098;49.448;7.904;2023-08-30T06:13:22;97473.06;;;12.29;83.68
46392;BME280;32098;49.448;7.904;2023-08-30T06:15:51;97467.34;;;12.16;85.64
46392;BME280;32098;49.448;7.904;2023-08-30T06:18:18;97474.59;;;12.15;85.84
46392;BME280;32098;49.448;7.904;2023-08-30T06:20:45;97472.19;;;12.19;85.53
46392;BME280;32098;49.448;7.904;2023-08-30T06:23:13;97469.25;;;12.20;85.99
46392;BME280;32098;49.448;7.904;2023-08-30T06:25:40;97475.16;;;12.22;86.47
46392;BME280;32098;49.448;7.904;2023-08-30T06:28:06;97466.91;;;12.29;86.31
46392;BME280;32098;49.448;7.904;2023-08-30T06:30:33;97467.47;;;12.36;86.24
46392;BME280;32098;49.448;7.904;2023-08-30T06:33:00;97464.78;;;12.36;85.97
46392;BME280;32098;49.448;7.904;2023-08-30T06:35:27;97464.03;;;12.40;85.81
46392;BME280;32098;49.448;7.904;2023-08-30T06:37:53;97468.13;;;12.53;85.95
46392;BME280;32098;49.448;7.904;2023-08-30T06:40:20;97462.78;;;12.58;85.21
46392;BME280;32098;49.448;7.904;2023-08-30T06:42:46;97473.28;;;12.65;84.57
46392;BME280;32098;49.448;7.904;2023-08-30T06:45:13;97478.94;;;12.73;84.36
46392;BME280;32098;49.448;7.904;2023-08-30T06:47:39;97467.41;;;12.68;84.74
46392;BME280;32098;49.448;7.904;2023-08-30T06:50:06;97468.81;;;12.80;84.00
46392;BME280;32098;49.448;7.904;2023-08-30T06:52:36;97467.50;;;12.88;84.09
46392;BME280;32098;49.448;7.904;2023-08-30T06:55:03;97468.28;;;12.93;82.77
46392;BME280;32098;49.448;7.904;2023-08-30T06:57:30;97469.63;;;12.91;82.85
46392;BME280;32098;49.448;7.904;2023-08-30T06:59:56;97459.25;;;13.10;83.18
46392;BME280;32098;49.448;7.904;2023-08-30T07:02:23;97463.03;;;13.29;83.15
46392;BME280;32098;49.448;7.904;2023-08-30T07:04:49;97470.63;;;13.57;83.35
46392;BME280;32098;49.448;7.904;2023-08-30T07:07:16;97471.72;;;13.86;81.07
46392;BME280;32098;49.448;7.904;2023-08-30T07:09:42;97467.13;;;14.12;79.86
46392;BME280;32098;49.448;7.904;2023-08-30T07:12:09;97465.47;;;14.41;79.06
46392;BME280;32098;49.448;7.904;2023-08-30T07:14:36;97465.75;;;14.40;77.41
46392;BME280;32098;49.448;7.904;2023-08-30T07:17:02;97463.63;;;14.21;78.19
46392;BME280;32098;49.448;7.904;2023-08-30T07:19:30;97466.28;;;14.31;78.02
46392;BME280;32098;49.448;7.904;2023-08-30T07:21:56;97473.00;;;14.54;78.29
46392;BME280;32098;49.448;7.904;2023-08-30T07:24:23;97460.88;;;14.67;77.77
46392;BME280;32098;49.448;7.904;2023-08-30T07:26:49;97463.81;;;14.75;76.64
46392;BME280;32098;49.448;7.904;2023-08-30T07:29:16;97469.19;;;14.75;77.24
46392;BME280;32098;49.448;7.904;2023-08-30T07:31:43;97466.50;;;14.70;77.23
46392;BME280;32098;49.448;7.904;2023-08-30T07:34:10;97471.06;;;14.70;76.14
46392;BME280;32098;49.448;7.904;2023-08-30T07:36:36;97468.66;;;14.73;75.20
46392;BME280;32098;49.448;7.904;2023-08-30T07:39:14;97473.72;;;14.85;74.88
46392;BME280;32098;49.448;7.904;2023-08-30T07:41:40;97465.06;;;14.93;75.41
46392;BME280;32098;49.448;7.904;2023-08-30T07:44:07;97471.22;;;15.04;74.03
46392;BME280;32098;49.448;7.904;2023-08-30T07:46:34;97478.97;;;15.10;73.17
46392;BME280;32098;49.448;7.904;2023-08-30T07:49:00;97474.59;;;15.19;72.62
46392;BME280;32098;49.448;7.904;2023-08-30T07:51:27;97474.56;;;15.29;72.66
46392;BME280;32098;49.448;7.904;2023-08-30T07:53:53;97474.84;;;15.28;72.83
46392;BME280;32098;49.448;7.904;2023-08-30T07:56:20;97472.16;;;15.28;72.42
46392;BME280;32098;49.448;7.904;2023-08-30T07:58:47;97478.34;;;15.28;71.72
46392;BME280;32098;49.448;7.904;2023-08-30T08:01:13;97477.25;;;15.29;71.87
46392;BME280;32098;49.448;7.904;2023-08-30T08:03:40;97476.41;;;15.34;71.82
46392;BME280;32098;49.448;7.904;2023-08-30T08:06:25;97476.13;;;15.40;71.73
46392;BME280;32098;49.448;7.904;2023-08-30T08:08:52;97477.72;;;15.41;71.47
46392;BME280;32098;49.448;7.904;2023-08-30T08:11:19;97482.03;;;15.47;71.19
46392;BME280;32098;49.448;7.904;2023-08-30T08:13:45;97479.28;;;15.52;71.24
46392;BME280;32098;49.448;7.904;2023-08-30T08:16:12;97475.19;;;15.65;71.39
46392;BME280;32098;49.448;7.904;2023-08-30T08:18:39;97482.63;;;15.78;71.24
46392;BME280;32098;49.448;7.904;2023-08-30T08:21:05;97475.06;;;16.09;71.07
46392;BME280;32098;49.448;7.904;2023-08-30T08:23:32;97488.38;;;16.29;69.80
46392;BME280;32098;49.448;7.904;2023-08-30T08:26:01;97478.34;;;16.63;69.14
46392;BME280;32098;49.448;7.904;2023-08-30T08:28:29;97480.91;;;16.97;67.21
46392;BME280;32098;49.448;7.904;2023-08-30T08:30:55;97477.69;;;17.19;66.38
46392;BME280;32098;49.448;7.904;2023-08-30T08:33:22;97478.47;;;17.19;64.91
46392;BME280;32098;49.448;7.904;2023-08-30T08:35:50;97485.94;;;17.27;64.22
46392;BME280;32098;49.448;7.904;2023-08-30T08:38:17;97477.56;;;17.48;63.23
46392;BME280;32098;49.448;7.904;2023-08-30T08:40:44;97480.06;;;17.63;61.69
46392;BME280;32098;49.448;7.904;2023-08-30T08:43:11;97481.56;;;17.87;61.37
46392;BME280;32098;49.448;7.904;2023-08-30T08:45:38;97473.78;;;17.99;60.29
46392;BME280;32098;49.448;7.904;2023-08-30T08:48:06;97475.28;;;18.11;59.88
46392;BME280;32098;49.448;7.904;2023-08-30T08:50:34;97478.72;;;18.30;59.81
46392;BME280;32098;49.448;7.904;2023-08-30T08:53:02;97482.16;;;18.49;59.28
46392;BME280;32098;49.448;7.904;2023-08-30T08:55:30;97476.28;;;18.74;58.74
46392;BME280;32098;49.448;7.904;2023-08-30T08:57:58;97478.63;;;18.94;57.10
46392;BME280;32098;49.448;7.904;2023-08-30T09:00:25;97479.78;;;19.15;57.49
46392;BME280;32098;49.448;7.904;2023-08-30T09:02:54;97472.25;;;19.26;57.69
46392;BME280;32098;49.448;7.904;2023-08-30T09:05:30;97476.50;;;19.18;56.17
46392;BME280;32098;49.448;7.904;2023-08-30T09:07:57;97483.31;;;19.29;55.76
46392;BME280;32098;49.448;7.904;2023-08-30T09:10:24;97474.31;;;19.43;55.80
46392;BME280;32098;49.448;7.904;2023-08-30T09:12:51;97472.50;;;19.52;55.16
46392;BME280;32098;49.448;7.904;2023-08-30T09:15:17;97475.41;;;19.69;54.47
46392;BME280;32098;49.448;7.904;2023-08-30T09:17:46;97469.25;;;19.77;54.41
46392;BME280;32098;49.448;7.904;2023-08-30T09:20:14;97467.63;;;19.76;54.53
46392;BME280;32098;49.448;7.904;2023-08-30T09:22:41;97461.63;;;19.79;54.41
46392;BME280;32098;49.448;7.904;2023-08-30T09:25:10;97464.19;;;19.84;54.02
46392;BME280;32098;49.448;7.904;2023-08-30T09:27:37;97459.03;;;19.96;54.14
46392;BME280;32098;49.448;7.904;2023-08-30T09:30:08;97459.13;;;20.13;53.64
46392;BME280;32098;49.448;7.904;2023-08-30T09:32:41;97455.31;;;20.14;53.92
46392;BME280;32098;49.448;7.904;2023-08-30T09:35:11;97453.31;;;20.28;53.59
46392;BME280;32098;49.448;7.904;2023-08-30T09:37:38;97453.78;;;20.52;53.76
46392;BME280;32098;49.448;7.904;2023-08-30T09:40:05;97448.06;;;20.63;52.16
46392;BME280;32098;49.448;7.904;2023-08-30T09:42:32;97447.03;;;20.81;52.74
46392;BME280;32098;49.448;7.904;2023-08-30T09:44:59;97444.50;;;20.93;51.24
46392;BME280;32098;49.448;7.904;2023-08-30T09:47:26;97434.28;;;20.81;51.30
46392;BME280;32098;49.448;7.904;2023-08-30T09:49:58;97434.78;;;20.92;51.86
46392;BME280;32098;49.448;7.904;2023-08-30T09:52:25;97424.94;;;20.65;51.48
46392;BME280;32098;49.448;7.904;2023-08-30T09:54:53;97427.31;;;20.58;51.52
46392;BME280;32098;49.448;7.904;2023-08-30T09:57:20;97419.38;;;20.70;51.24
46392;BME280;32098;49.448;7.904;2023-08-30T09:59:48;97416.78;;;20.56;51.47
46392;BME280;32098;49.448;7.904;2023-08-30T10:02:15;97410.16;;;20.40;51.28
46392;BME280;32098;49.448;7.904;2023-08-30T10:04:43;97407.81;;;20.47;51.61
46392;BME280;32098;49.448;7.904;2023-08-30T10:07:12;97396.34;;;20.50;52.09
46392;BME280;32098;49.448;7.904;2023-08-30T10:09:38;97399.59;;;20.70;50.90
46392;BME280;32098;49.448;7.904;2023-08-30T10:12:28;97395.38;;;20.46;50.55
46392;BME280;32098;49.448;7.904;2023-08-30T10:14:55;97393.63;;;20.20;50.61
46392;BME280;32098;49.448;7.904;2023-08-30T10:17:27;97390.47;;;20.26;50.31
46392;BME280;32098;49.448;7.904;2023-08-30T10:19:56;97380.09;;;20.28;50.58
46392;BME280;32098;49.448;7.904;2023-08-30T10:22:24;97382.88;;;20.06;49.90
46392;BME280;32098;49.448;7.904;2023-08-30T10:24:56;97386.81;;;20.00;50.62
46392;BME280;32098;49.448;7.904;2023-08-30T10:27:33;97384.22;;;19.95;49.85
46392;BME280;32098;49.448;7.904;2023-08-30T10:30:02;97379.97;;;19.72;50.03
46392;BME280;32098;49.448;7.904;2023-08-30T10:32:30;97373.66;;;19.41;49.37
46392;BME280;32098;49.448;7.904;2023-08-30T10:35:01;97382.22;;;19.78;49.79
46392;BME280;32098;49.448;7.904;2023-08-30T10:37:27;97373.66;;;20.16;50.22
46392;BME280;32098;49.448;7.904;2023-08-30T10:40:00;97373.03;;;20.19;49.21
46392;BME280;32098;49.448;7.904;2023-08-30T10:42:29;97379.69;;;20.04;48.56
46392;BME280;32098;49.448;7.904;2023-08-30T10:45:00;97381.13;;;20.10;48.71
46392;BME280;32098;49.448;7.904;2023-08-30T10:47:40;97377.72;;;19.96;48.97
46392;BME280;32098;49.448;7.904;2023-08-30T10:50:11;97382.94;;;19.92;49.57
46392;BME280;32098;49.448;7.904;2023-08-30T10:52:38;97373.22;;;19.91;49.38
46392;BME280;32098;49.448;7.904;2023-08-30T10:55:10;97374.88;;;20.01;49.18
46392;BME280;32098;49.448;7.904;2023-08-30T10:57:38;97366.66;;;20.15;48.86
46392;BME280;32098;49.448;7.904;2023-08-30T11:02:45;97366.66;;;20.15;48.61
46392;BME280;32098;49.448;7.904;2023-08-30T11:05:12;97363.00;;;20.19;48.86
46392;BME280;32098;49.448;7.904;2023-08-30T11:07:39;97361.41;;;20.18;47.95
46392;BME280;32098;49.448;7.904;2023-08-30T11:10:06;97355.00;;;20.14;46.84
46392;BME280;32098;49.448;7.904;2023-08-30T11:12:33;97350.13;;;20.33;46.91
46392;BME280;32098;49.448;7.904;2023-08-30T11:14:59;97351.34;;;20.49;47.39
46392;BME280;32098;49.448;7.904;2023-08-30T11:17:26;97343.72;;;20.69;48.38
46392;BME280;32098;49.448;7.904;2023-08-30T11:20:12;97349.66;;;20.79;47.21
46392;BME280;32098;49.448;7.904;2023-08-30T11:22:42;97357.28;;;20.69;45.71
46392;BME280;32098;49.448;7.904;2023-08-30T11:25:09;97348.81;;;20.62;44.57
46392;BME280;32098;49.448;7.904;2023-08-30T11:27:37;97352.81;;;20.73;45.16
46392;BME280;32098;49.448;7.904;2023-08-30T11:30:06;97350.25;;;20.68;45.58
46392;BME280;32098;49.448;7.904;2023-08-30T11:32:36;97348.66;;;20.27;45.59
46392;BME280;32098;49.448;7.904;2023-08-30T11:35:04;97347.81;;;20.10;45.15
46392;BME280;32098;49.448;7.904;2023-08-30T11:37:31;97348.19;;;20.25;45.62
46392;BME280;32098;49.448;7.904;2023-08-30T11:39:59;97338.84;;;20.40;45.11
46392;BME280;32098;49.448;7.904;2023-08-30T11:42:26;97340.78;;;20.39;44.80
46392;BME280;32098;49.448;7.904;2023-08-30T11:44:52;97336.84;;;20.23;43.90
46392;BME280;32098;49.448;7.904;2023-08-30T11:47:24;97336.22;;;20.26;44.80
46392;BME280;32098;49.448;7.904;2023-08-30T11:49:56;97341.59;;;20.48;44.38
46392;BME280;32098;49.448;7.904;2023-08-30T11:52:24;97330.13;;;20.51;43.81
46392;BME280;32098;49.448;7.904;2023-08-30T11:54:52;97330.78;;;20.57;43.68
46392;BME280;32098;49.448;7.904;2023-08-30T11:57:19;97341.00;;;20.69;43.51
46392;BME280;32098;49.448;7.904;2023-08-30T11:59:47;97329.38;;;20.77;43.61
46392;BME280;32098;49.448;7.904;2023-08-30T12:02:16;97339.16;;;20.95;43.72
46392;BME280;32098;49.448;7.904;2023-08-30T12:04:45;97329.97;;;20.56;41.89
46392;BME280;32098;49.448;7.904;2023-08-30T12:07:26;97327.56;;;20.46;42.86
46392;BME280;32098;49.448;7.904;2023-08-30T12:10:10;97324.03;;;20.46;43.39
46392;BME280;32098;49.448;7.904;2023-08-30T12:12:37;97327.91;;;20.53;43.74
46392;BME280;32098;49.448;7.904;2023-08-30T12:15:09;97330.31;;;20.64;44.10
46392;BME280;32098;49.448;7.904;2023-08-30T12:17:35;97318.66;;;20.63;44.22
46392;BME280;32098;49.448;7.904;2023-08-30T12:20:02;97308.94;;;20.71;44.65
46392;BME280;32098;49.448;7.904;2023-08-30T12:22:37;97327.63;;;20.72;44.39
46392;BME280;32098;49.448;7.904;2023-08-30T12:25:19;97320.63;;;20.80;45.08
46392;BME280;32098;49.448;7.904;2023-08-30T12:27:46;97321.09;;;20.82;44.48
46392;BME280;32098;49.448;7.904;2023-08-30T12:30:17;97319.47;;;20.64;43.24
46392;BME280;32098;49.448;7.904;2023-08-30T12:32:44;97313.09;;;20.77;43.92
46392;BME280;32098;49.448;7.904;2023-08-30T12:35:11;97315.19;;;20.88;43.64
46392;BME280;32098;49.448;7.904;2023-08-30T12:37:38;97315.69;;;20.99;44.10
46392;BME280;32098;49.448;7.904;2023-08-30T12:40:05;97302.09;;;20.90;44.17
46392;BME280;32098;49.448;7.904;2023-08-30T12:42:33;97314.88;;;20.90;44.58
46392;BME280;32098;49.448;7.904;2023-08-30T12:44:59;97313.56;;;20.79;43.33
46392;BME280;32098;49.448;7.904;2023-08-30T12:47:27;97319.16;;;20.91;44.09
46392;BME280;32098;49.448;7.904;2023-08-30T12:49:54;97308.66;;;20.89;43.96
46392;BME280;32098;49.448;7.904;2023-08-30T12:52:21;97309.91;;;21.00;44.58
46392;BME280;32098;49.448;7.904;2023-08-30T12:54:48;97300.22;;;21.08;43.75
46392;BME280;32098;49.448;7.904;2023-08-30T12:57:14;97301.47;;;20.85;43.55
46392;BME280;32098;49.448;7.904;2023-08-30T12:59:41;97301.78;;;20.92;43.79
46392;BME280;32098;49.448;7.904;2023-08-30T13:02:07;97300.50;;;20.89;43.55
46392;BME280;32098;49.448;7.904;2023-08-30T13:04:35;97299.84;;;20.84;43.81
46392;BME280;32098;49.448;7.904;2023-08-30T13:07:04;97292.03;;;20.91;44.17
46392;BME280;32098;49.448;7.904;2023-08-30T13:09:31;97293.47;;;21.05;44.44